Date,TemperatureHighF,TemperatureAvgF,TemperatureLowF,DewpointHighF,DewpointAvgF,DewpointLowF,HumidityHigh,HumidityAvg,HumidityLow,PressureMaxIn,PressureMinIn,WindSpeedMaxMPH,WindSpeedAvgMPH,GustSpeedMaxMPH,PrecipitationSumIn
2013-1-1,76,66,60,62,59,57,90,79,62,30.09,30.07,3,0,3,0.00
2013-1-2,79,68,58,68,62,56,94,84,64,30.10,30.00,8,0,8,0.00
2013-1-3,72,65,59,66,62,56,94,89,80,30.21,30.06,8,0,8,0.07
2013-1-4,60,57,55,58,56,54,94,94,93,30.31,30.18,8,0,8,0.25
2013-1-5,73,61,54,64,57,52,93,86,73,30.34,30.21,5,0,5,0.10
2013-1-6,80,70,61,70,64,58,93,84,67,30.24,30.07,10,0,10,0.25
2013-1-7,69,62,56,62,58,53,94,87,72,30.26,30.15,8,0,8,0.19
2013-1-8,78,68,62,71,65,60,95,90,74,30.26,30.16,4,0,4,0.00
2013-1-9,79,72,67,74,69,65,95,90,81,30.33,30.22,2,0,2,0.03
2013-1-10,80,72,65,70,66,63,94,84,63,30.34,30.24,8,0,8,0.01
2013-1-11,81,70,62,70,65,60,94,85,61,30.29,30.18,5,0,5,0.00
2013-1-12,80,69,61,69,64,59,95,85,60,30.23,30.11,3,0,4,0.00
2013-1-13,80,68,60,68,63,58,94,86,58,30.20,30.09,6,0,6,0.00
2013-1-14,81,72,62,68,65,60,93,80,61,30.22,30.13,3,0,3,0.00
2013-1-15,80,71,63,69,66,61,94,83,63,30.18,30.07,4,0,4,0.00
2013-1-16,81,71,61,66,64,59,94,78,53,30.14,30.02,8,0,8,0.00
2013-1-17,78,65,54,69,59,48,94,84,70,30.13,29.97,24,2,24,0.00
2013-1-18,65,53,44,59,47,1,94,80,74,30.32,30.13,18,2,18,0.03
2013-1-19,74,63,56,62,57,53,92,84,68,30.32,30.17,8,0,8,0.00
2013-1-20,72,64,60,64,59,55,94,85,70,30.22,24.29,6,0,6,0.05
2013-1-21,75,66,61,63,59,57,90,79,64,30.13,30.02,6,0,6,0.00
2013-1-22,62,58,50,58,50,43,86,75,53,30.31,30.10,6,0,6,0.00
2013-1-23,67,55,44,48,44,38,88,69,36,30.41,30.30,6,0,6,0.00
2013-1-24,73,59,47,54,50,30,92,75,48,30.36,30.23,11,0,11,0.00
2013-1-25,76,62,52,58,54,50,94,76,49,30.34,30.19,11,0,11,0.00
2013-1-26,76,61,50,60,54,48,94,78,54,30.31,30.17,9,0,9,0.00
2013-1-27,79,65,55,64,59,52,94,81,57,30.35,24.19,6,0,6,0.00
2013-1-28,79,71,62,66,64,0,92,80,62,30.36,24.23,6,0,6,0.00
2013-1-29,82,72,64,69,66,62,93,81,57,30.28,30.11,7,0,7,0.00
2013-1-30,83,74,65,67,66,63,92,77,57,30.13,29.88,10,1,10,0.00
2013-1-31,73,61,49,67,48,0,90,64,36,30.26,24.34,21,2,27,0.06
2013-2-1,70,56,40,43,38,30,86,55,26,30.39,30.25,13,0,13,0.00
2013-2-2,72,56,43,49,44,39,88,68,36,30.35,30.16,8,0,8,0.00
2013-2-3,70,57,44,55,46,40,90,69,42,30.22,30.07,16,1,16,0.00
2013-2-4,72,56,44,48,44,38,92,68,31,30.18,30.05,7,0,7,0.00
2013-2-5,76,60,45,56,50,42,91,70,48,30.14,30.01,12,0,12,0.00
2013-2-6,78,68,60,66,60,54,88,76,58,30.14,30.05,0,0,0,0.00
2013-2-7,81,72,62,65,63,59,92,75,57,30.10,29.88,7,0,8,0.00
2013-2-8,80,72,64,66,62,57,88,71,51,30.10,29.88,16,2,16,0.00
2013-2-9,74,64,57,60,56,53,90,77,58,30.24,30.09,7,0,7,0.00
2013-2-10,78,67,57,62,58,54,91,75,53,30.31,30.18,8,0,8,0.00
2013-2-11,83,70,60,65,61,57,91,77,51,30.25,30.06,10,0,10,0.00
2013-2-12,86,75,64,68,65,61,93,74,50,30.12,29.93,6,0,9,0.00
2013-2-13,86,74,65,70,68,61,91,82,55,29.99,29.82,16,1,16,0.26
2013-2-14,66,63,58,62,60,56,94,89,78,30.08,29.93,12,0,12,0.36
2013-2-15,70,60,54,60,55,52,93,85,62,30.12,29.97,8,0,8,0.01
2013-2-16,69,58,50,53,47,34,92,70,43,30.16,29.91,21,2,21,0.00
2013-2-17,55,46,37,34,28,18,81,51,24,30.38,30.15,16,1,16,0.00
2013-2-18,68,51,34,50,41,31,90,71,47,30.42,30.24,6,0,7,0.00
2013-2-19,79,64,49,59,54,47,94,72,48,30.25,30.07,14,0,14,0.00
2013-2-20,76,66,59,61,57,53,91,74,58,30.17,30.05,6,0,6,0.00
2013-2-21,84,69,58,68,61,54,88,76,48,30.14,30.01,6,0,6,0.00
2013-2-22,88,74,63,71,66,60,94,78,44,30.11,30.00,7,0,7,0.00
2013-2-23,87,78,71,70,68,64,91,74,49,30.04,29.89,16,0,16,0.00
2013-2-24,76,71,66,72,68,63,92,90,82,30.00,29.89,8,0,8,1.29
2013-2-25,85,75,64,72,67,62,94,78,53,29.96,29.79,8,0,8,0.13
2013-2-26,76,71,66,71,68,61,94,89,75,29.89,29.76,15,0,15,0.43
2013-2-27,76,66,58,63,58,52,91,75,52,30.01,29.89,11,1,11,0.00
2013-2-28,75,62,52,57,52,48,92,71,43,30.03,29.88,15,1,15,0.00
2013-3-1,68,58,51,51,45,40,88,64,41,30.03,29.92,16,1,16,0.00
2013-3-2,61,53,45,43,39,33,79,62,37,30.06,29.96,21,2,21,0.00
2013-3-3,56,50,43,38,37,36,79,63,50,30.19,30.03,20,2,20,0.00
2013-3-4,68,51,36,44,36,29,91,61,28,30.28,30.13,13,0,13,0.00
2013-3-5,79,62,45,58,48,42,92,64,35,30.22,30.01,15,0,15,0.00
2013-3-6,71,61,51,62,44,32,91,58,25,30.16,29.92,21,2,21,0.00
2013-3-7,72,56,42,50,44,36,86,66,40,30.25,30.14,12,0,12,0.00
2013-3-8,77,62,45,51,47,36,92,62,26,30.26,30.13,9,0,9,0.00
2013-3-9,77,62,49,56,52,46,91,71,46,30.26,30.17,6,0,6,0.00
2013-3-10,80,65,55,61,56,52,91,75,46,30.22,30.10,9,0,10,0.00
2013-3-11,80,68,56,63,59,54,92,74,53,30.15,29.93,9,0,9,0.00
2013-3-12,72,67,60,68,63,57,93,86,78,30.05,29.88,10,0,10,0.16
2013-3-13,79,63,51,57,47,34,92,62,23,30.19,30.04,12,1,13,0.00
2013-3-14,71,55,47,49,41,32,79,62,25,30.30,30.17,12,0,12,0.00
2013-3-15,76,61,44,48,42,35,92,55,27,30.33,30.15,8,0,10,0.00
2013-3-16,84,63,51,52,48,42,87,62,24,30.21,30.05,10,0,11,0.00
2013-3-17,80,67,53,62,55,46,91,67,44,30.17,30.01,7,0,7,0.00
2013-3-18,81,73,65,67,63,60,86,73,58,30.09,29.92,8,0,8,0.01
2013-3-19,91,75,64,66,63,57,92,70,34,30.05,29.89,9,0,10,0.00
2013-3-20,77,68,60,68,63,58,93,84,67,30.00,29.80,15,0,15,1.16
2013-3-21,74,61,51,58,47,33,93,65,25,30.00,29.88,16,1,16,0.00
2013-3-22,81,62,48,62,53,46,92,74,40,30.06,29.92,6,0,6,0.24
2013-3-23,85,72,63,75,67,60,94,84,64,30.02,29.79,14,0,16,0.25
2013-3-24,82,73,68,73,69,65,93,87,69,29.88,29.64,22,1,26,0.40
2013-3-25,76,66,57,66,50,33,91,61,22,30.06,29.73,18,2,18,0.00
2013-3-26,65,56,47,45,36,28,65,49,28,30.21,30.05,23,2,23,0.00
2013-3-27,69,61,50,46,40,34,80,48,30,30.33,30.22,11,1,11,0.00
2013-3-28,77,58,43,48,42,33,90,61,23,30.34,30.20,10,0,10,0.00
2013-3-29,80,62,47,50,44,35,91,59,22,30.37,30.21,8,0,8,0.00
2013-3-30,83,66,50,57,51,47,92,63,32,30.30,30.13,7,0,8,0.00
2013-3-31,87,74,62,59,56,53,80,56,31,30.20,30.01,7,0,10,0.00
2013-4-1,88,75,64,68,62,0,88,68,43,30.05,29.93,16,1,20,0.00
2013-4-2,88,74,63,65,60,52,92,66,32,30.11,30.02,6,0,8,0.00
2013-4-3,85,72,61,68,64,58,92,77,52,30.11,29.98,10,0,10,0.34
2013-4-4,75,71,68,70,68,65,93,90,81,30.05,29.86,10,0,10,0.08
2013-4-5,78,68,59,68,64,56,92,85,68,30.02,29.82,13,1,13,0.04
2013-4-6,79,66,56,62,58,53,92,77,55,30.16,30.01,10,0,10,0.01
2013-4-7,85,70,58,64,60,56,94,74,40,30.19,30.08,7,0,7,0.00
2013-4-8,87,71,60,67,62,57,93,76,44,30.17,30.07,6,0,8,0.00
2013-4-9,88,75,63,69,64,58,94,71,44,30.20,30.10,7,0,7,0.00
2013-4-10,89,75,61,71,65,58,93,75,46,30.16,30.00,6,0,6,0.00
2013-4-11,92,81,72,74,71,69,92,74,49,30.03,29.84,11,0,11,0.08
2013-4-12,86,79,74,74,72,70,91,81,61,29.92,29.82,10,1,10,0.00
2013-4-13,88,77,68,71,68,60,92,75,51,30.02,29.89,7,0,7,0.00
2013-4-14,88,75,67,75,68,52,92,81,65,30.02,29.84,32,0,32,3.24
2013-4-15,92,77,65,70,66,50,92,72,38,30.10,29.92,6,0,7,0.00
2013-4-16,90,77,69,72,69,66,93,77,55,30.18,30.07,6,0,6,0.00
2013-4-17,128,75,67,71,67,0,93,78,52,31.00,29.48,7,0,49,10.24
2013-4-18,92,78,66,71,68,64,93,73,43,30.10,29.96,6,0,6,0.00
2013-4-19,93,84,76,75,72,68,86,68,45,30.04,29.91,14,0,14,0.16
2013-4-20,76,69,61,71,63,57,90,83,70,30.19,29.97,15,0,15,0.00
2013-4-21,81,70,61,72,66,0,93,87,69,30.18,30.05,5,0,5,3.34
2013-4-22,91,70,65,70,67,-28,94,90,11,34.78,24.19,16,0,239,0.65
2013-4-23,84,70,62,67,63,60,94,80,48,30.15,30.05,7,0,7,0.01
2013-4-24,90,72,59,68,62,56,94,74,44,30.18,30.08,6,0,6,0.00
2013-4-25,91,74,63,68,64,0,92,73,41,30.23,24.19,7,0,7,0.00
2013-4-26,90,73,65,68,65,62,92,78,44,30.28,30.18,11,0,12,0.00
2013-4-27,89,77,67,69,66,-16,92,73,46,34.02,24.19,126,0,126,8.24
2013-4-28,85,73,0,80,65,-27,95,78,1,34.91,24.19,116,0,166,0.07
2013-4-29,88,74,67,72,66,61,91,78,44,30.06,29.92,8,0,8,2.14
2013-4-30,91,76,69,72,68,30,94,78,42,30.05,29.94,20,0,20,1.86
2013-5-1,77,72,69,72,69,66,94,89,76,30.05,29.97,3,0,3,0.15
2013-5-2,75,71,66,71,68,64,94,91,85,29.99,29.85,2,0,2,1.86
2013-5-3,80,72,68,71,68,0,94,88,72,29.86,29.71,11,0,11,19.52
2013-5-4,86,72,69,73,68,-30,94,88,74,29.75,24.19,36,0,36,0.12
2013-5-5,82,75,66,72,54,50,76,50,34,29.95,29.70,14,2,14,0.00
2013-5-6,82,68,63,61,59,54,88,75,41,30.02,29.90,16,1,16,0.00
2013-5-7,83,70,58,63,58,55,91,69,42,30.07,29.97,14,1,15,0.00
2013-5-8,86,73,62,64,62,59,92,70,45,30.15,30.05,11,0,11,0.00
2013-5-9,90,75,62,67,63,59,93,70,39,30.17,30.08,4,0,6,0.00
2013-5-10,93,72,66,73,66,63,93,83,38,30.16,30.00,5,0,5,0.01
2013-5-11,93,78,71,73,70,68,91,77,46,30.08,29.97,14,0,14,0.00
2013-5-12,93,80,70,72,68,66,90,69,45,30.05,29.95,10,1,14,0.00
2013-5-13,89,74,67,68,64,53,90,71,34,30.16,30.01,11,0,11,0.00
2013-5-14,89,72,58,60,56,48,90,62,25,30.24,30.14,6,0,6,0.00
2013-5-15,90,74,60,64,60,52,91,64,34,30.24,30.11,4,0,6,0.00
2013-5-16,90,77,66,67,64,57,88,66,35,30.16,30.04,6,0,6,0.00
2013-5-17,92,78,66,71,66,62,90,70,40,30.13,30.05,0,0,0,0.00
2013-5-18,96,80,69,72,69,63,92,72,34,30.15,30.03,0,0,0,0.00
2013-5-19,93,79,72,74,71,69,92,78,49,30.12,30.01,0,0,0,0.04
2013-5-20,94,78,72,75,71,65,92,80,40,30.11,30.00,11,0,11,1.65
2013-5-21,80,75,71,73,71,68,93,88,74,30.07,29.97,8,0,8,0.04
2013-5-22,89,75,70,74,71,68,94,87,56,30.00,29.93,5,0,6,0.72
2013-5-23,93,77,70,75,71,68,94,82,48,30.02,29.92,7,0,10,0.24
2013-5-24,96,81,72,74,69,60,93,70,33,30.12,29.98,11,0,11,0.00
2013-5-25,89,79,69,69,66,62,92,68,42,30.23,30.10,6,0,6,0.00
2013-5-26,91,75,62,65,62,57,92,68,37,30.25,30.17,6,0,6,0.00
2013-5-27,89,76,65,68,65,62,91,71,45,30.22,30.13,6,0,6,0.00
2013-5-28,92,79,69,73,70,66,91,75,51,30.18,30.10,7,0,7,0.00
2013-5-29,88,80,73,75,73,70,92,80,60,30.16,30.09,7,0,7,0.08
2013-5-30,85,78,73,75,73,71,93,84,66,30.16,30.07,14,0,14,0.32
2013-5-31,85,79,73,76,72,70,92,81,65,30.14,30.06,9,0,9,0.07
2013-6-1,88,79,74,77,74,0,92,83,65,30.10,30.00,7,0,7,8.04
2013-6-2,95,80,75,78,74,72,93,85,52,30.04,29.89,8,0,8,1.99
2013-6-3,92,80,74,76,74,72,94,83,54,30.02,29.89,9,0,9,0.02
2013-6-4,94,80,74,74,73,71,92,81,51,30.07,29.95,13,0,13,0.22
2013-6-5,147,74,1,79,70,-55,98,88,4,34.40,22.74,193,0,215,0.36
2013-6-6,78,74,72,75,72,69,94,91,77,29.94,29.66,10,0,10,0.38
2013-6-7,91,80,74,75,72,71,92,79,57,29.97,29.76,11,0,12,0.14
2013-6-8,90,79,74,77,73,71,92,82,60,30.11,29.96,8,0,11,0.04
2013-6-9,88,78,71,78,73,69,93,83,65,30.14,30.05,2,0,5,0.05
2013-6-10,97,81,74,77,73,70,93,80,43,30.13,30.02,13,0,13,0.03
2013-6-11,93,78,74,77,74,70,93,87,57,30.11,30.03,10,0,10,0.02
2013-6-12,98,83,72,76,73,68,94,75,42,30.11,30.00,10,0,10,0.02
2013-6-13,100,87,76,76,73,69,90,66,39,30.05,29.90,12,0,12,0.02
2013-6-14,136,85,77,89,70,-54,92,66,1,34.77,22.39,197,1,237,26.24
2013-6-15,83,81,80,75,72,72,82,75,70,30.10,29.95,5,0,5,0.02
2013-6-16,92,82,78,79,75,72,89,80,61,30.12,30.05,6,0,6,0.00
2013-6-17,94,83,76,80,77,72,92,84,58,30.11,29.55,10,0,10,2.00
2013-6-18,98,84,75,78,75,73,93,78,48,29.63,29.52,10,0,10,0.01
2013-6-19,97,87,78,78,76,72,91,71,50,29.61,29.53,9,0,9,0.00
2013-6-20,99,84,77,78,75,70,91,77,42,29.65,29.56,5,0,10,0.24
2013-6-21,96,81,75,77,74,72,93,82,50,29.68,29.59,4,0,6,1.32
2013-6-22,94,85,75,77,75,73,92,74,54,29.67,29.61,6,0,7,0.00
2013-6-23,91,82,75,77,76,72,93,81,60,29.71,29.62,5,0,5,0.00
2013-6-24,95,85,76,78,76,73,92,75,53,29.75,29.65,5,0,5,0.00
2013-6-25,95,84,76,78,75,71,92,75,48,29.71,29.62,7,0,7,0.00
2013-6-26,97,84,78,78,75,72,91,77,48,29.65,29.56,8,0,8,0.00
2013-6-27,99,83,75,77,74,0,92,76,43,29.61,29.50,12,0,12,0.00
2013-6-28,97,84,78,80,76,73,91,79,50,29.53,29.41,16,0,16,0.34
2013-6-29,93,84,78,78,76,72,91,78,56,29.44,29.38,12,1,12,0.00
2013-6-30,93,80,77,78,76,74,92,85,58,29.45,29.38,11,0,11,0.66
2013-7-1,88,79,76,77,74,72,93,85,69,29.59,29.43,16,0,16,0.44
2013-7-2,84,78,76,79,75,73,93,90,80,29.66,29.54,3,0,3,0.14
2013-7-3,90,79,76,80,76,73,94,89,65,29.69,29.61,5,0,5,0.22
2013-7-4,93,82,75,78,75,71,94,81,57,29.71,29.63,6,0,6,0.57
2013-7-5,92,82,75,80,75,72,94,82,56,29.71,29.63,12,0,12,0.07
2013-7-6,95,84,76,77,76,72,93,77,48,29.69,29.63,6,0,8,0.00
2013-7-7,94,85,78,80,76,73,92,76,51,29.70,29.62,7,0,7,0.00
2013-7-8,96,86,77,78,76,74,93,74,51,29.73,29.66,3,0,4,0.00
2013-7-9,96,84,76,92,75,-12,93,76,19,29.73,24.19,51,0,51,5.22
2013-7-10,94,84,76,78,75,73,92,77,54,29.66,29.55,6,0,6,0.00
2013-7-11,98,85,77,77,74,71,91,72,43,29.60,29.50,4,0,6,0.00
2013-7-12,89,82,77,79,76,74,92,84,65,29.53,29.46,12,0,12,0.18
2013-7-13,95,82,76,79,75,73,93,80,52,29.57,29.48,9,0,9,0.02
2013-7-14,90,80,75,78,75,73,92,85,62,29.66,29.54,6,0,6,0.08
2013-7-15,91,81,74,77,75,71,94,82,62,29.69,29.61,5,0,7,0.00
2013-7-16,95,81,76,78,75,38,92,83,20,29.73,29.66,4,0,6,0.28
2013-7-17,94,81,77,78,76,0,94,86,56,29.72,29.64,6,0,6,0.15
2013-7-18,86,80,76,79,76,74,94,87,70,29.69,29.62,7,0,7,0.70
2013-7-19,94,80,76,78,74,73,93,84,56,29.70,29.61,9,0,9,1.49
2013-7-20,94,80,76,80,76,73,94,87,54,29.67,29.58,9,0,10,0.18
2013-7-21,94,82,76,80,76,73,94,84,54,29.68,29.59,6,0,8,0.00
2013-7-22,96,82,78,80,76,74,92,83,53,29.69,29.61,14,0,14,0.45
2013-7-23,86,79,77,79,76,74,94,89,77,29.65,29.52,14,0,14,0.20
2013-7-24,88,81,77,80,77,74,92,87,73,29.56,29.45,21,0,21,0.75
2013-7-25,88,82,78,79,77,74,91,83,70,29.54,29.43,12,1,13,0.05
2013-7-26,94,84,77,81,77,75,94,83,56,29.58,29.51,8,0,8,0.10
2013-7-27,97,84,78,79,77,75,94,82,52,29.57,29.47,8,0,8,0.11
2013-7-28,93,80,76,79,76,73,94,88,57,29.62,29.50,15,0,15,1.55
2013-7-29,95,82,75,80,76,73,95,83,51,29.71,29.58,4,0,5,0.03
2013-7-30,96,85,77,78,77,73,94,79,53,29.74,29.66,4,0,4,0.00
2013-7-31,96,86,80,79,77,73,91,74,52,29.70,29.58,11,0,13,0.00
2013-8-1,97,82,77,78,76,72,93,82,48,29.63,29.54,5,0,7,0.11
2013-8-2,95,85,76,78,76,72,94,76,51,29.60,29.51,5,0,7,0.00
2013-8-3,96,84,78,81,77,74,92,81,52,29.65,29.56,14,0,17,0.61
2013-8-4,90,83,78,80,78,76,93,85,69,29.63,29.55,7,0,11,0.12
2013-8-5,94,84,79,81,78,40,93,83,22,29.58,29.49,5,0,8,0.15
2013-8-6,96,84,77,80,77,75,93,81,52,29.55,29.46,0,0,3,0.01
2013-8-7,93,85,79,81,78,77,93,82,61,29.56,29.49,3,0,3,0.04
2013-8-8,87,84,82,78,77,76,87,80,71,29.62,29.56,0,0,0,0.07
2013-8-9,97,87,78,79,77,74,93,73,50,29.64,29.55,5,0,5,0.00
2013-8-10,94,85,77,84,77,74,93,78,57,29.69,29.61,5,0,5,0.04
2013-8-11,96,86,78,80,77,74,93,77,51,29.72,29.64,3,0,4,0.00
2013-8-12,95,86,78,80,76,73,93,75,53,29.69,29.58,3,0,5,0.00
2013-8-13,97,86,78,79,76,71,92,73,46,29.62,29.50,6,0,6,0.00
2013-8-14,101,84,79,79,76,73,92,79,42,29.58,29.49,8,0,8,0.43
2013-8-15,96,84,77,79,76,69,93,79,45,29.60,29.51,6,0,6,0.91
2013-8-16,93,84,79,79,77,72,93,81,51,29.62,29.54,7,0,7,0.03
2013-8-17,93,84,79,81,78,75,94,83,64,29.65,29.56,9,0,9,0.07
2013-8-18,94,85,79,79,77,74,93,78,57,29.67,29.59,6,0,6,0.00
2013-8-19,90,82,78,80,77,75,94,86,66,29.65,29.55,3,0,3,0.05
2013-8-20,95,85,78,80,77,75,94,79,54,29.66,29.57,2,0,7,0.00
2013-8-21,93,82,78,80,78,75,93,86,59,29.69,29.61,9,0,9,0.79
2013-8-22,86,80,77,81,77,74,94,92,84,29.66,29.56,9,0,9,1.61
2013-8-23,89,80,77,81,77,74,96,92,73,29.59,29.53,3,0,3,1.76
2013-8-24,90,80,76,80,76,74,96,88,68,29.67,29.56,6,0,6,0.01
2013-8-25,88,80,76,79,76,74,94,87,68,29.72,29.64,2,0,2,0.00
2013-8-26,89,83,76,80,76,74,93,82,66,29.70,29.59,7,0,7,0.05
2013-8-27,92,82,76,77,74,71,94,79,54,29.63,29.57,5,0,5,0.00
2013-8-31,78,77,77,75,74,74,91,91,89,29.53,29.50,0,0,0,1.63
2013-9-1,94,83,76,78,75,73,93,79,53,29.56,29.47,9,0,9,0.12
2013-9-2,97,84,76,78,75,71,93,76,46,29.58,29.49,8,0,8,0.00
2013-9-3,96,86,78,78,76,73,91,74,49,29.59,29.49,12,0,12,0.00
2013-9-4,95,82,77,79,77,73,92,83,57,29.64,29.54,11,0,11,0.76
2013-9-5,95,83,75,80,76,73,94,80,53,29.67,29.58,4,0,4,0.00
2013-9-6,93,81,76,80,76,72,93,86,56,29.62,29.53,9,0,9,0.80
2013-9-7,90,82,75,79,75,0,94,82,63,29.58,29.50,6,0,6,0.02
2013-9-8,90,80,75,77,74,72,93,84,60,29.54,29.46,6,0,6,0.00
2013-9-9,92,82,74,76,74,71,94,78,53,29.60,29.50,6,0,6,0.00
2013-9-10,91,84,76,78,74,69,91,75,51,29.67,29.56,7,0,7,0.01
2013-9-11,93,83,77,78,75,71,93,78,52,29.65,29.57,7,0,7,0.00
2013-9-12,82,80,78,77,76,75,91,88,80,29.59,29.48,0,0,0,0.07
2013-9-13,93,83,75,78,75,72,93,78,53,29.48,29.37,6,0,6,0.00
2013-9-14,94,85,78,78,76,73,92,76,52,29.55,29.40,6,0,6,0.00
2013-9-15,92,83,78,79,77,74,92,82,58,29.64,29.53,6,0,6,0.00
2013-9-16,94,84,76,78,75,72,93,77,49,29.65,29.57,2,0,4,0.00
2013-9-17,92,83,77,79,76,74,92,81,57,29.64,29.55,7,0,7,0.22
2013-9-18,90,82,76,78,75,69,93,81,64,29.61,29.54,6,0,8,0.08
2013-9-19,91,82,76,77,75,72,92,80,57,29.63,29.54,8,0,8,0.00
2013-9-20,77,75,72,72,71,38,92,89,26,29.59,29.55,0,0,0,0.00
2013-9-21,92,84,73,74,72,70,93,71,51,29.52,29.35,5,0,5,0.00
2013-9-22,91,81,78,78,75,73,92,83,60,29.43,29.33,5,0,8,0.23
2013-9-23,85,79,76,80,76,74,93,91,81,29.53,29.41,0,0,0,1.00
2013-9-24,86,80,76,78,76,73,93,88,72,29.53,29.40,13,0,13,0.28
2013-9-25,84,80,76,76,74,73,92,83,73,29.42,29.35,12,1,12,0.02
2013-9-26,92,84,77,79,74,66,93,75,47,29.44,29.34,14,2,14,0.01
2013-9-27,81,76,73,75,72,71,92,89,80,29.53,29.41,9,0,9,0.04
2013-9-28,84,77,74,77,73,71,93,87,72,29.58,29.48,6,0,6,0.02
2013-9-29,88,79,72,74,72,69,94,81,54,29.56,29.48,8,0,9,0.00
2013-9-30,89,77,71,75,72,69,94,84,55,29.58,29.48,5,0,5,0.00
2013-10-1,88,80,75,76,73,71,93,81,66,29.63,29.54,5,0,5,0.01
2013-10-2,88,79,72,74,72,69,93,79,61,29.64,29.58,6,0,6,0.00
2013-10-3,90,83,71,76,73,69,94,74,59,29.64,29.55,2,0,5,0.00
2013-10-4,90,80,74,76,74,71,94,81,57,29.66,29.57,6,0,6,0.00
2013-10-5,90,83,73,76,74,70,93,75,58,29.62,29.53,5,0,5,0.00
2013-10-6,90,82,74,80,75,72,94,81,58,29.54,29.43,4,0,6,0.43
2013-10-7,83,78,75,78,75,41,94,90,28,29.45,29.32,8,0,13,1.10
2013-10-8,86,79,76,77,75,73,94,89,72,29.51,29.34,10,0,11,0.01
2013-10-9,80,76,70,73,71,68,92,84,74,29.59,29.48,14,0,14,0.00
2013-10-10,86,75,67,75,69,65,93,82,59,29.62,29.53,7,0,7,0.00
2013-10-11,83,70,67,71,67,64,93,89,64,29.56,29.51,0,0,0,0.00
2013-10-12,87,80,69,72,67,63,93,67,48,29.60,29.52,10,0,10,0.00
2013-10-13,86,76,68,69,67,63,93,74,51,29.64,29.54,7,0,7,0.00
2013-10-14,86,75,70,72,69,68,92,83,59,29.59,29.51,8,0,10,0.00
2013-10-15,83,77,71,74,72,69,93,85,73,29.56,29.46,8,0,8,0.00
2013-10-16,88,78,73,74,72,70,94,84,57,29.53,29.46,8,0,9,0.00
2013-10-17,89,82,72,75,72,70,94,75,55,29.54,29.46,7,0,7,0.00
2013-10-18,90,81,73,75,73,70,94,78,55,29.56,29.47,5,0,5,0.00
2013-10-19,90,86,81,76,74,72,86,69,59,29.53,29.44,6,0,6,0.00
2013-10-20,87,82,77,76,75,72,92,80,69,29.54,29.42,8,0,9,0.00
2013-10-21,90,83,74,79,76,72,93,80,63,29.56,29.48,6,0,6,0.00
2013-10-22,90,80,75,77,74,72,93,83,58,29.52,29.38,12,0,13,0.00
2013-10-23,83,78,69,73,65,58,92,65,47,29.56,29.37,16,1,16,0.00
2013-10-24,73,69,62,63,60,53,88,72,65,29.70,29.56,8,0,8,0.00
2013-10-25,81,69,60,63,59,56,92,74,45,29.77,29.67,9,0,9,0.00
2013-10-26,80,70,59,62,58,54,91,69,42,29.74,29.64,8,0,8,0.00
2013-10-27,80,70,59,62,59,56,92,71,47,29.68,29.61,10,0,10,0.00
2013-10-28,83,70,59,68,62,56,93,79,53,29.74,29.63,6,0,6,0.00
2013-10-29,84,73,64,70,66,62,94,80,56,29.77,29.68,7,0,7,0.00
2013-10-30,84,76,67,71,68,64,93,78,59,29.78,29.67,4,0,4,0.00
2013-10-31,86,77,67,72,69,0,94,76,56,29.91,29.55,8,0,8,0.00
2013-11-1,88,79,73,74,71,67,93,78,52,29.57,29.44,12,0,12,0.00
2013-11-2,78,73,65,74,69,63,93,89,80,29.52,29.38,6,0,9,0.75
2013-11-3,76,67,61,63,59,50,94,79,46,29.65,29.50,12,0,12,0.01
2013-11-4,79,70,63,68,64,58,90,80,56,29.71,29.63,7,0,7,0.01
2013-11-5,83,74,69,72,69,66,93,85,63,29.72,29.65,10,0,10,0.39
2013-11-6,80,75,70,72,70,67,94,86,71,29.67,29.60,3,0,3,0.00
2013-11-7,81,74,70,72,70,0,94,87,70,29.61,29.53,8,0,8,7.59
2013-11-8,78,70,64,69,65,56,93,84,72,29.67,29.54,10,0,10,0.00
2013-11-9,80,73,62,68,65,60,94,77,61,29.73,29.64,6,0,6,0.00
2013-11-10,82,72,64,70,66,62,93,83,60,29.71,29.64,6,0,6,0.00
2013-11-11,82,74,66,71,67,63,93,81,63,29.71,29.64,5,0,5,0.00
2013-11-12,79,70,64,71,66,61,94,87,67,29.66,29.58,10,0,10,0.00
2013-11-13,69,63,60,62,55,52,84,76,66,29.82,29.62,13,1,13,0.00
2013-11-14,76,66,56,63,59,53,92,78,58,29.83,29.71,5,0,5,3.17
2013-11-15,76,69,62,69,65,59,93,89,78,29.74,29.62,4,0,4,0.14
2013-11-16,78,73,68,74,71,66,94,92,86,29.69,29.58,0,0,0,0.09
2013-11-17,85,77,71,74,72,69,94,85,65,29.64,29.56,0,0,4,0.01
2013-11-18,83,79,72,74,72,70,93,80,69,29.59,29.47,10,0,11,0.00
2013-11-19,78,73,67,71,67,61,93,81,64,29.53,29.44,10,0,10,0.00
2013-11-20,79,73,67,73,69,64,93,89,77,29.66,29.52,3,0,4,0.13
2013-11-21,79,74,72,74,71,70,94,91,82,29.74,29.64,6,0,6,0.02
2013-11-22,80,75,70,73,70,67,93,85,69,29.75,29.65,3,0,4,0.00
2013-11-23,82,73,66,71,67,64,94,83,62,29.66,29.56,3,0,3,0.00
2013-11-24,71,67,63,68,62,56,92,83,73,29.77,29.58,7,0,10,0.00
2013-11-25,76,69,62,64,60,56,87,75,61,29.79,29.63,8,0,8,0.00
2013-11-26,82,76,68,74,71,64,94,85,73,29.64,29.30,9,0,9,0.22
2013-11-27,77,65,48,74,59,43,92,82,65,29.71,29.25,22,2,22,0.38
2013-11-28,65,54,42,56,49,39,90,83,69,29.85,29.71,9,0,10,0.00
2013-11-29,71,62,54,63,56,52,93,82,69,29.89,29.81,10,0,10,0.00
2013-11-30,77,67,60,66,63,57,94,87,66,29.83,29.72,6,0,8,0.02
2013-12-1,76,68,64,68,65,62,94,89,74,29.73,29.52,9,0,9,0.00
2013-12-2,74,67,62,64,62,58,93,84,62,29.53,29.38,13,0,13,0.00
2013-12-3,79,68,59,65,61,56,93,80,60,29.54,29.43,7,0,8,0.00
2013-12-4,82,71,64,71,66,61,93,84,62,29.63,29.52,10,0,10,0.00
2013-12-5,83,75,65,71,68,62,94,80,63,29.72,29.63,3,0,3,0.00
2013-12-6,85,75,67,73,69,64,94,82,63,29.72,29.65,7,0,7,0.00
2013-12-7,84,75,68,71,68,65,93,80,54,29.78,29.69,0,0,0,0.00
2013-12-8,84,74,66,72,68,63,94,83,59,29.77,29.66,6,0,6,0.00
2013-12-9,84,77,67,73,69,65,94,77,60,29.73,29.65,3,0,5,0.00
2013-12-10,84,77,67,72,68,63,93,75,57,29.73,29.62,7,0,10,0.00
2013-12-11,82,71,62,71,64,58,89,81,66,29.78,29.70,3,0,7,0.00
2013-12-12,70,64,57,63,53,38,92,71,36,29.84,29.72,14,0,14,0.00
2013-12-13,74,64,54,60,56,49,91,77,59,29.80,29.66,5,0,5,0.00
2013-12-14,82,73,62,73,67,59,93,84,68,29.66,29.49,5,0,8,0.00
2013-12-15,76,70,63,72,66,59,93,86,75,29.66,29.43,15,0,15,0.33
2013-12-16,66,58,51,59,52,48,90,81,61,29.75,29.64,8,0,8,0.00
2013-12-17,71,58,50,59,52,47,92,83,63,29.77,29.69,8,0,8,0.00
2013-12-18,70,59,49,53,50,46,91,75,52,29.81,29.71,11,0,11,0.00
2013-12-19,75,60,48,62,55,46,93,83,59,29.80,29.72,3,0,3,0.00
2013-12-20,82,71,57,67,63,54,94,76,58,29.75,29.66,5,0,5,0.00
2013-12-21,84,74,64,76,69,62,94,85,63,29.70,29.60,8,0,8,0.00
2013-12-22,85,76,68,73,70,66,94,83,63,29.69,29.63,5,0,8,0.00
2013-12-23,86,78,71,74,71,68,94,81,60,29.72,29.63,7,0,7,0.00
2013-12-24,76,66,55,73,57,37,92,76,36,29.78,29.63,13,0,13,0.17
2013-12-25,75,62,51,62,54,46,90,78,58,29.77,29.70,7,0,7,0.00
2013-12-26,77,67,60,67,62,58,93,84,70,29.75,29.65,7,0,7,0.00
2013-12-27,73,66,62,67,63,59,92,89,82,29.79,29.70,8,0,8,0.00
2013-12-28,77,72,67,73,69,65,94,92,84,29.76,29.56,5,0,5,0.29
2013-12-29,80,75,68,75,72,66,93,90,81,29.57,29.44,8,0,8,0.42
2013-12-30,70,64,61,67,60,55,93,86,61,29.73,29.53,8,0,8,0.00
2013-12-31,71,63,59,59,56,52,92,81,59,29.82,29.69,6,0,6,0.00
2014-1-1,66,63,61,64,61,0,95,92,87,29.78,29.60,8,0,8,0.09
2014-1-2,80,70,62,73,67,57,96,92,77,29.60,29.38,22,0,23,0.56